St Louis Regional Airport
KALN : now visible

Airfield :











YOU CAN JOIN US ON...

 
LOGIN :

Register | Disclaimer

   EN    FR    IT 

 









Legend :    VFR   Marginal VFR   IFR   Intensive IFR   Very Intensive IFR
Visi :
Ceiling :
>= 8 km
>= 3000ft
5 to 8 km
1000 to 3000 ft
1500m to 5 km
500 to 1000 ft
800 to 1500m
200 to 500 ft
< 800m
< 200 ft
Symbols :   Thunderstorms  Fog  Heavy snow  Heavy precipitations  Wind > 20 kt






- Airport Elevation : 544 ft


KALN - St Louis Regional

CURRENT METAR :
  • 181055Z AUTO 20006KT 3SM DZ OVC004 05/05 A2983 RMK AO2 P0003 T00500050

EXPIRED METARs :
  • 181035Z AUTO 19007KT 5SM -RA OVC004 05/05 A2983 RMK AO2 P0003 T00510051
  • 181015Z AUTO 19007KT 5SM RA OVC004 05/05 A2982 RMK AO2 P0002 T00460046
  • 180955Z AUTO 17006KT 10SM RA OVC006 04/04 A2982 RMK AO2 P0001 T00390039
  • 180935Z AUTO 16009G15KT 7SM -RA OVC006 04/04 A2983 RMK AO2 P0001 T00360036
  • 180915Z AUTO 16007KT 7SM -RA OVC006 03/03 A2985 RMK AO2 T00300030
  • 180855Z AUTO 16008KT 7SM DZ OVC006 03/03 A2987 RMK AO2 P0007 60050 T00280028
  • 180835Z AUTO 17008KT 5SM -RA OVC006 03/03 A2988 RMK AO2 P0007 T00260026
  • 180815Z AUTO 15009KT 4SM -SN OVC006 02/02 A2989 RMK AO2 P0005 T00230023

TAF N/A



MET'MAP, your aeronautical weather chart ! - Copyright ORBIFLY December 2007 - Disclaimer

ORBIFLY MET'MAP TEAM :

Programming & Development : Alexandra Zaïnal
Concept & original design : Baudouin d'Aumeries
Assistance for programming : Marc-Olivier Méhu
Technical & hardware support : Manuel Goepfert

Contact : metmap@orbifly.com




SOURCES & CREDITS :

   NOAA       Earth
Advisory